Airfield :
LOGIN :

Register | Disclaimer

   EN    FR    IT 

 










Legend :    VFR   Marginal VFR   IFR   Intensive IFR   Very Intensive IFR
Visi :
Ceiling :
>= 8 km
>= 3000ft
5 to 8 km
1000 to 3000 ft
1500m to 5 km
500 to 1000 ft
800 to 1500m
200 to 500 ft
< 800m
< 200 ft
Symbols :   Thunderstorms  Fog  Heavy snow  Heavy precipitations  Wind > 20 kt
SIGMETs :     Misc.  Thunderstorms  Icing  Turbulence  Mountain Waves  Volcanic Ashes






- Airport Elevation : 286 ft
- IATA code : TRF


ENTO - Sandefjord , Torp

CURRENT METAR :
  • 171820Z 23022G41KT 200V260 9999 FEW035 07/02 Q0985 TEMPO 22020G30KT

EXPIRED METARs :
  • 171750Z 23021KT 9999 FEW035 07/01 Q0984 TEMPO 22022G32KT
  • 171720Z 23024G37KT 9999 FEW020 07/02 Q0983 NOSIG
  • 171650Z 23023G35KT 9999 FEW020 07/01 Q0983 TEMPO 21022KT
  • 171620Z 23019KT 200V260 9999 SCT038 07/02 Q0982 TEMPO 21020G3KT
  • 171550Z 23020KT 9999 SCT038 08/02 Q0982 TEMPO 21020G32KT

TAF TAF ENTO
Valid from the 17 at 18:00 until the 18 at 18:00 UTC


1718/1818 21015KT 9999 FEW020
TEMPO 1718/1721 22020G30KT
TEMPO 1809/1815 23018G28KT



MET'MAP, your aeronautical weather chart ! - Copyright ORBIFLY December 2007 - Disclaimer

ORBIFLY MET'MAP TEAM :

Programming & Development : Alexandra Zaïnal
Concept & original design : Baudouin d'Aumeries
Assistance for programming : Marc-Olivier Méhu
Technical & hardware support : Manuel Goepfert

Contact : metmap@orbifly.com




SOURCES & CREDITS :

   NOAA